sensor_id;sensor_type;location;lat;lon;timestamp;pressure;altitude;pressure_sealevel;temperature;humidity
78843;BME280;70542;53.774;-0.352;2024-02-14T00:05:15;100710;;;14.444;43
78843;BME280;70542;53.774;-0.352;2024-02-14T00:11:21;100720;;;13.867;44
78843;BME280;70542;53.774;-0.352;2024-02-14T00:17:18;100720;;;14.845;42
78843;BME280;70542;53.774;-0.352;2024-02-14T00:23:27;100720;;;14.372;42
78843;BME280;70542;53.774;-0.352;2024-02-14T00:29:37;100720;;;14.941;42
78843;BME280;70542;53.774;-0.352;2024-02-14T00:35:57;100720;;;14.817;42
78843;BME280;70542;53.774;-0.352;2024-02-14T00:42:17;100710;;;14.842;43
78843;BME280;70542;53.774;-0.352;2024-02-14T00:48:19;100710;;;14.558;42
78843;BME280;70542;53.774;-0.352;2024-02-14T00:54:41;100730;;;14.765;42
78843;BME280;70542;53.774;-0.352;2024-02-14T01:01:01;100740;;;15.093;42
78843;BME280;70542;53.774;-0.352;2024-02-14T01:07:02;100740;;;14.571;42
78843;BME280;70542;53.774;-0.352;2024-02-14T01:13:06;100740;;;14.984;42
78843;BME280;70542;53.774;-0.352;2024-02-14T01:19:19;100730;;;14.311;43
78843;BME280;70542;53.774;-0.352;2024-02-14T01:25:41;100740;;;14.668;43
78843;BME280;70542;53.774;-0.352;2024-02-14T01:31:49;100740;;;13.698;44
78843;BME280;70542;53.774;-0.352;2024-02-14T01:38:09;100730;;;14.922;42
78843;BME280;70542;53.774;-0.352;2024-02-14T01:44:25;100740;;;14.329;43
78843;BME280;70542;53.774;-0.352;2024-02-14T01:50:33;100750;;;14.846;42
78843;BME280;70542;53.774;-0.352;2024-02-14T01:56:42;100760;;;14.872;42
78843;BME280;70542;53.774;-0.352;2024-02-14T02:02:56;100760;;;14.692;43
78843;BME280;70542;53.774;-0.352;2024-02-14T02:08:57;100760;;;14.928;42
78843;BME280;70542;53.774;-0.352;2024-02-14T02:15:07;100760;;;14.943;42
78843;BME280;70542;53.774;-0.352;2024-02-14T02:21:08;100760;;;14.879;42
78843;BME280;70542;53.774;-0.352;2024-02-14T02:27:28;100750;;;14.834;43
78843;BME280;70542;53.774;-0.352;2024-02-14T02:33:34;100740;;;14.82;42
78843;BME280;70542;53.774;-0.352;2024-02-14T02:39:46;100740;;;14.414;43
78843;BME280;70542;53.774;-0.352;2024-02-14T02:45:55;100740;;;14.483;43
78843;BME280;70542;53.774;-0.352;2024-02-14T02:51:52;100740;;;14.916;43
78843;BME280;70542;53.774;-0.352;2024-02-14T02:58:05;100740;;;14.973;43
78843;BME280;70542;53.774;-0.352;2024-02-14T03:04:07;100740;;;14.623;44
78843;BME280;70542;53.774;-0.352;2024-02-14T03:10:25;100740;;;14.039;45
78843;BME280;70542;53.774;-0.352;2024-02-14T03:16:29;100740;;;14.29;43
78843;BME280;70542;53.774;-0.352;2024-02-14T03:22:35;100730;;;14.936;43
78843;BME280;70542;53.774;-0.352;2024-02-14T03:28:49;100720;;;14.249;44
78843;BME280;70542;53.774;-0.352;2024-02-14T03:34:54;100730;;;14.864;43
78843;BME280;70542;53.774;-0.352;2024-02-14T03:41:03;100740;;;14.582;43
78843;BME280;70542;53.774;-0.352;2024-02-14T03:47:23;100740;;;14.214;43
78843;BME280;70542;53.774;-0.352;2024-02-14T03:53:39;100730;;;14.476;43
78843;BME280;70542;53.774;-0.352;2024-02-14T04:00:07;100720;;;14.575;43
78843;BME280;70542;53.774;-0.352;2024-02-14T04:06:32;100720;;;14.652;42
78843;BME280;70542;53.774;-0.352;2024-02-14T04:12:40;100720;;;14.646;42
78843;BME280;70542;53.774;-0.352;2024-02-14T04:18:42;100730;;;14.2;43
78843;BME280;70542;53.774;-0.352;2024-02-14T04:24:55;100720;;;13.736;44
78843;BME280;70542;53.774;-0.352;2024-02-14T04:30:58;100720;;;14.66;43
78843;BME280;70542;53.774;-0.352;2024-02-14T04:37:15;100720;;;14.731;42
78843;BME280;70542;53.774;-0.352;2024-02-14T04:43:33;100720;;;14.984;42
78843;BME280;70542;53.774;-0.352;2024-02-14T04:49:42;100720;;;15.056;42
78843;BME280;70542;53.774;-0.352;2024-02-14T04:55:54;100720;;;14.983;42
78843;BME280;70542;53.774;-0.352;2024-02-14T05:02:13;100730;;;15.115;42
78843;BME280;70542;53.774;-0.352;2024-02-14T05:08:29;100730;;;14.739;43
78843;BME280;70542;53.774;-0.352;2024-02-14T05:14:44;100730;;;15.044;43
78843;BME280;70542;53.774;-0.352;2024-02-14T05:21:00;100720;;;14.797;43
78843;BME280;70542;53.774;-0.352;2024-02-14T05:27:09;100720;;;14.779;44
78843;BME280;70542;53.774;-0.352;2024-02-14T05:33:27;100720;;;15.199;43
78843;BME280;70542;53.774;-0.352;2024-02-14T05:39:23;100720;;;15.482;42
78843;BME280;70542;53.774;-0.352;2024-02-14T05:45:20;100710;;;15.312;42
78843;BME280;70542;53.774;-0.352;2024-02-14T05:51:17;100710;;;14.758;43
78843;BME280;70542;53.774;-0.352;2024-02-14T05:57:30;100710;;;15.632;42
78843;BME280;70542;53.774;-0.352;2024-02-14T06:03:31;100710;;;15.433;42
78843;BME280;70542;53.774;-0.352;2024-02-14T06:09:28;100710;;;15.715;43
78843;BME280;70542;53.774;-0.352;2024-02-14T06:15:42;100720;;;15.87;42
78843;BME280;70542;53.774;-0.352;2024-02-14T06:21:45;100720;;;15.701;43
78843;BME280;70542;53.774;-0.352;2024-02-14T06:27:43;100710;;;15.63;44
78843;BME280;70542;53.774;-0.352;2024-02-14T06:33:40;100710;;;15.924;44
78843;BME280;70542;53.774;-0.352;2024-02-14T06:39:19;100720;;;15.874;44
78843;BME280;70542;53.774;-0.352;2024-02-14T06:45:38;100720;;;16.176;43
78843;BME280;70542;53.774;-0.352;2024-02-14T06:51:52;100720;;;16.294;43
78843;BME280;70542;53.774;-0.352;2024-02-14T06:58:01;100720;;;16.316;43
78843;BME280;70542;53.774;-0.352;2024-02-14T07:04:15;100720;;;15.269;45
78843;BME280;70542;53.774;-0.352;2024-02-14T07:10:29;100730;;;15.819;45
78843;BME280;70542;53.774;-0.352;2024-02-14T07:16:43;100740;;;16.046;43
78843;BME280;70542;53.774;-0.352;2024-02-14T07:22:40;100730;;;15.745;45
78843;BME280;70542;53.774;-0.352;2024-02-14T07:28:37;100730;;;16.509;44
78843;BME280;70542;53.774;-0.352;2024-02-14T07:34:39;100740;;;15.804;45
78843;BME280;70542;53.774;-0.352;2024-02-14T07:40:35;100730;;;15.732;45
78843;BME280;70542;53.774;-0.352;2024-02-14T07:46:44;100740;;;15.488;46
78843;BME280;70542;53.774;-0.352;2024-02-14T07:52:41;100740;;;15.366;46
78843;BME280;70542;53.774;-0.352;2024-02-14T07:58:39;100730;;;16.016;45
78843;BME280;70542;53.774;-0.352;2024-02-14T08:04:47;100740;;;16.108;45
78843;BME280;70542;53.774;-0.352;2024-02-14T08:10:57;100750;;;15.696;45
78843;BME280;70542;53.774;-0.352;2024-02-14T08:17:11;100740;;;15.978;45
78843;BME280;70542;53.774;-0.352;2024-02-14T08:23:20;100740;;;15.387;46
78843;BME280;70542;53.774;-0.352;2024-02-14T08:29:35;100730;;;15.527;47
78843;BME280;70542;53.774;-0.352;2024-02-14T08:35:44;100740;;;14.539;49
78843;BME280;70542;53.774;-0.352;2024-02-14T08:41:44;100750;;;15.244;48
78843;BME280;70542;53.774;-0.352;2024-02-14T08:47:53;100750;;;15.168;48
78843;BME280;70542;53.774;-0.352;2024-02-14T08:53:49;100760;;;15.685;48
78843;BME280;70542;53.774;-0.352;2024-02-14T08:59:59;100770;;;15.039;49
78843;BME280;70542;53.774;-0.352;2024-02-14T09:06:07;100780;;;16.078;47
78843;BME280;70542;53.774;-0.352;2024-02-14T09:12:16;100770;;;16.024;47
78843;BME280;70542;53.774;-0.352;2024-02-14T09:18:13;100770;;;15.799;47
78843;BME280;70542;53.774;-0.352;2024-02-14T09:24:22;100760;;;16.587;45
78843;BME280;70542;53.774;-0.352;2024-02-14T09:30:31;100780;;;16.554;46
78843;BME280;70542;53.774;-0.352;2024-02-14T09:36:40;100780;;;15.228;48
78843;BME280;70542;53.774;-0.352;2024-02-14T09:42:54;100780;;;15.151;49
78843;BME280;70542;53.774;-0.352;2024-02-14T09:49:04;100790;;;15.566;49
78843;BME280;70542;53.774;-0.352;2024-02-14T09:55:15;100800;;;14.934;51
78843;BME280;70542;53.774;-0.352;2024-02-14T10:01:25;100790;;;16.348;47
78843;BME280;70542;53.774;-0.352;2024-02-14T10:07:22;100800;;;16.629;47
78843;BME280;70542;53.774;-0.352;2024-02-14T10:13:20;100800;;;16.513;47
78843;BME280;70542;53.774;-0.352;2024-02-14T10:19:18;100800;;;17.345;45
78843;BME280;70542;53.774;-0.352;2024-02-14T10:25:15;100790;;;16.945;46
78843;BME280;70542;53.774;-0.352;2024-02-14T10:31:11;100800;;;16.656;47
78843;BME280;70542;53.774;-0.352;2024-02-14T10:37:08;100800;;;17.103;47
78843;BME280;70542;53.774;-0.352;2024-02-14T10:43:18;100800;;;16.991;47
78843;BME280;70542;53.774;-0.352;2024-02-14T10:49:16;100790;;;17.206;46
78843;BME280;70542;53.774;-0.352;2024-02-14T10:55:30;100810;;;16.695;47
78843;BME280;70542;53.774;-0.352;2024-02-14T11:01:28;100810;;;17.508;46
78843;BME280;70542;53.774;-0.352;2024-02-14T11:07:38;100810;;;17.226;46
78843;BME280;70542;53.774;-0.352;2024-02-14T11:13:53;100800;;;17.118;46
78843;BME280;70542;53.774;-0.352;2024-02-14T11:20:12;100810;;;17.101;46
78843;BME280;70542;53.774;-0.352;2024-02-14T11:26:21;100820;;;17.051;47
78843;BME280;70542;53.774;-0.352;2024-02-14T11:32:32;100820;;;17.076;47
78843;BME280;70542;53.774;-0.352;2024-02-14T11:38:29;100820;;;17.364;46
78843;BME280;70542;53.774;-0.352;2024-02-14T11:44:39;100820;;;17.018;46
78843;BME280;70542;53.774;-0.352;2024-02-14T11:50:39;100810;;;18.383;45
78843;BME280;70542;53.774;-0.352;2024-02-14T11:56:37;100810;;;17.651;46
78843;BME280;70542;53.774;-0.352;2024-02-14T12:02:46;100800;;;17.48;47
78843;BME280;70542;53.774;-0.352;2024-02-14T12:08:56;100800;;;17.396;47
78843;BME280;70542;53.774;-0.352;2024-02-14T12:15:05;100800;;;18.436;46
78843;BME280;70542;53.774;-0.352;2024-02-14T12:21:17;100800;;;17.193;48
78843;BME280;70542;53.774;-0.352;2024-02-14T12:27:26;100790;;;17.514;47
78843;BME280;70542;53.774;-0.352;2024-02-14T12:33:24;100790;;;16.975;48
78843;BME280;70542;53.774;-0.352;2024-02-14T12:39:38;100800;;;17.163;47
78843;BME280;70542;53.774;-0.352;2024-02-14T12:45:46;100810;;;18.437;45
78843;BME280;70542;53.774;-0.352;2024-02-14T12:51:43;100810;;;17.363;47
78843;BME280;70542;53.774;-0.352;2024-02-14T12:57:40;100800;;;17.227;47
78843;BME280;70542;53.774;-0.352;2024-02-14T13:03:54;100810;;;17.795;46
78843;BME280;70542;53.774;-0.352;2024-02-14T13:09:51;100810;;;17.836;47
78843;BME280;70542;53.774;-0.352;2024-02-14T13:15:56;100810;;;17.744;47
78843;BME280;70542;53.774;-0.352;2024-02-14T13:21:53;100800;;;18.184;46
78843;BME280;70542;53.774;-0.352;2024-02-14T13:27:49;100800;;;18.019;47
78843;BME280;70542;53.774;-0.352;2024-02-14T13:33:48;100800;;;17.524;48
78843;BME280;70542;53.774;-0.352;2024-02-14T13:39:45;100790;;;18.737;46
78843;BME280;70542;53.774;-0.352;2024-02-14T13:45:43;100790;;;18.345;46
78843;BME280;70542;53.774;-0.352;2024-02-14T13:51:58;100780;;;19.213;46
78843;BME280;70542;53.774;-0.352;2024-02-14T13:57:54;100790;;;18.286;46
78843;BME280;70542;53.774;-0.352;2024-02-14T14:03:56;100790;;;18.879;45
78843;BME280;70542;53.774;-0.352;2024-02-14T14:09:54;100790;;;18.642;46
78843;BME280;70542;53.774;-0.352;2024-02-14T14:15:51;100800;;;16.463;50
78843;BME280;70542;53.774;-0.352;2024-02-14T14:21:47;100800;;;17.589;47
78843;BME280;70542;53.774;-0.352;2024-02-14T14:27:44;100800;;;18.25;46
78843;BME280;70542;53.774;-0.352;2024-02-14T14:33:41;100790;;;18.266;45
78843;BME280;70542;53.774;-0.352;2024-02-14T14:39:43;100790;;;17.975;46
78843;BME280;70542;53.774;-0.352;2024-02-14T14:45:39;100800;;;16.964;48
78843;BME280;70542;53.774;-0.352;2024-02-14T14:51:36;100800;;;16.366;50
78843;BME280;70542;53.774;-0.352;2024-02-14T14:57:33;100810;;;16.907;50
78843;BME280;70542;53.774;-0.352;2024-02-14T15:03:30;100810;;;16.602;51
78843;BME280;70542;53.774;-0.352;2024-02-14T15:09:28;100820;;;16.762;50
78843;BME280;70542;53.774;-0.352;2024-02-14T15:15:25;100820;;;16.207;50
78843;BME280;70542;53.774;-0.352;2024-02-14T15:21:40;100820;;;16.865;49
78843;BME280;70542;53.774;-0.352;2024-02-14T15:27:42;100820;;;17.238;49
78843;BME280;70542;53.774;-0.352;2024-02-14T15:33:51;100820;;;17.011;48
78843;BME280;70542;53.774;-0.352;2024-02-14T15:39:48;100830;;;16.221;50
78843;BME280;70542;53.774;-0.352;2024-02-14T15:45:46;100830;;;15.964;51
78843;BME280;70542;53.774;-0.352;2024-02-14T15:51:43;100830;;;16.257;51
78843;BME280;70542;53.774;-0.352;2024-02-14T15:57:40;100830;;;16.525;51
78843;BME280;70542;53.774;-0.352;2024-02-14T16:03:55;100840;;;15.484;52
78843;BME280;70542;53.774;-0.352;2024-02-14T16:10:06;100830;;;15.913;51
78843;BME280;70542;53.774;-0.352;2024-02-14T16:16:20;100840;;;14.907;53
78843;BME280;70542;53.774;-0.352;2024-02-14T16:22:17;100840;;;15.352;54
78843;BME280;70542;53.774;-0.352;2024-02-14T16:28:24;100840;;;15.932;51
78843;BME280;70542;53.774;-0.352;2024-02-14T16:34:34;100840;;;15.917;52
78843;BME280;70542;53.774;-0.352;2024-02-14T16:40:37;100850;;;15.905;50
78843;BME280;70542;53.774;-0.352;2024-02-14T16:46:33;100860;;;15.788;49
78843;BME280;70542;53.774;-0.352;2024-02-14T16:52:35;100860;;;17.387;47
78843;BME280;70542;53.774;-0.352;2024-02-14T16:58:44;100860;;;17.163;46
78843;BME280;70542;53.774;-0.352;2024-02-14T17:04:41;100860;;;16.535;47
78843;BME280;70542;53.774;-0.352;2024-02-14T17:10:38;100870;;;16.966;47
78843;BME280;70542;53.774;-0.352;2024-02-14T17:16:36;100870;;;16.907;46
78843;BME280;70542;53.774;-0.352;2024-02-14T17:22:55;100870;;;17.924;44
78843;BME280;70542;53.774;-0.352;2024-02-14T17:29:04;100880;;;18.247;43
78843;BME280;70542;53.774;-0.352;2024-02-14T17:35:07;100890;;;17.806;43
78843;BME280;70542;53.774;-0.352;2024-02-14T17:41:05;100900;;;18.485;42
78843;BME280;70542;53.774;-0.352;2024-02-14T17:47:13;100900;;;18.33;43
78843;BME280;70542;53.774;-0.352;2024-02-14T17:53:16;100920;;;17.522;44
78843;BME280;70542;53.774;-0.352;2024-02-14T17:59:17;100920;;;17.669;44
78843;BME280;70542;53.774;-0.352;2024-02-14T18:05:31;100930;;;17.968;44
78843;BME280;70542;53.774;-0.352;2024-02-14T18:12:01;100930;;;18.108;43
78843;BME280;70542;53.774;-0.352;2024-02-14T18:18:09;100940;;;18.09;43
78843;BME280;70542;53.774;-0.352;2024-02-14T18:24:30;100950;;;17.968;43
78843;BME280;70542;53.774;-0.352;2024-02-14T18:30:27;100950;;;18.148;43
78843;BME280;70542;53.774;-0.352;2024-02-14T18:36:37;100950;;;17.921;43
78843;BME280;70542;53.774;-0.352;2024-02-14T18:42:45;100940;;;17.875;45
78843;BME280;70542;53.774;-0.352;2024-02-14T18:48:42;100940;;;17.866;44
78843;BME280;70542;53.774;-0.352;2024-02-14T18:54:49;100930;;;17.732;45
78843;BME280;70542;53.774;-0.352;2024-02-14T19:00:58;100930;;;17.436;45
78843;BME280;70542;53.774;-0.352;2024-02-14T19:07:01;100940;;;16.707;46
78843;BME280;70542;53.774;-0.352;2024-02-14T19:13:10;100930;;;16.836;46
78843;BME280;70542;53.774;-0.352;2024-02-14T19:19:12;100920;;;16.859;48
78843;BME280;70542;53.774;-0.352;2024-02-14T19:25:09;100920;;;16.267;47
78843;BME280;70542;53.774;-0.352;2024-02-14T19:31:19;100930;;;16.933;47
78843;BME280;70542;53.774;-0.352;2024-02-14T19:37:30;100930;;;16.133;47
78843;BME280;70542;53.774;-0.352;2024-02-14T19:43:38;100930;;;16.062;48
78843;BME280;70542;53.774;-0.352;2024-02-14T19:49:36;100940;;;16.206;47
78843;BME280;70542;53.774;-0.352;2024-02-14T19:55:34;100940;;;16.234;47
78843;BME280;70542;53.774;-0.352;2024-02-14T20:01:43;100950;;;16.121;48
78843;BME280;70542;53.774;-0.352;2024-02-14T20:07:41;100950;;;16.75;47
78843;BME280;70542;53.774;-0.352;2024-02-14T20:13:50;100950;;;16.047;47
78843;BME280;70542;53.774;-0.352;2024-02-14T20:19:47;100950;;;16.375;47
78843;BME280;70542;53.774;-0.352;2024-02-14T20:25:28;100950;;;15.9;48
78843;BME280;70542;53.774;-0.352;2024-02-14T20:31:36;100950;;;17.056;46
78843;BME280;70542;53.774;-0.352;2024-02-14T20:37:46;100960;;;16.686;46
78843;BME280;70542;53.774;-0.352;2024-02-14T20:44:10;100960;;;17.174;46
78843;BME280;70542;53.774;-0.352;2024-02-14T20:50:18;100960;;;17.063;46
78843;BME280;70542;53.774;-0.352;2024-02-14T20:56:21;100960;;;16.677;46
78843;BME280;70542;53.774;-0.352;2024-02-14T21:02:00;100960;;;17.154;46
78843;BME280;70542;53.774;-0.352;2024-02-14T21:08:14;100970;;;17.059;46
78843;BME280;70542;53.774;-0.352;2024-02-14T21:14:23;100960;;;17.469;45
78843;BME280;70542;53.774;-0.352;2024-02-14T21:20:32;100970;;;17.696;44
78843;BME280;70542;53.774;-0.352;2024-02-14T21:26:41;100970;;;16.558;47
78843;BME280;70542;53.774;-0.352;2024-02-14T21:32:47;100970;;;18.151;44
78843;BME280;70542;53.774;-0.352;2024-02-14T21:39:00;100960;;;17.95;44
78843;BME280;70542;53.774;-0.352;2024-02-14T21:44:57;100960;;;18.303;44
78843;BME280;70542;53.774;-0.352;2024-02-14T21:51:19;100960;;;18.254;44
78843;BME280;70542;53.774;-0.352;2024-02-14T21:57:27;100950;;;17.797;45
78843;BME280;70542;53.774;-0.352;2024-02-14T22:03:42;100960;;;17.382;45
78843;BME280;70542;53.774;-0.352;2024-02-14T22:09:39;100960;;;17.126;46
78843;BME280;70542;53.774;-0.352;2024-02-14T22:15:48;100960;;;18.0;45
78843;BME280;70542;53.774;-0.352;2024-02-14T22:21:50;100960;;;17.419;45
78843;BME280;70542;53.774;-0.352;2024-02-14T22:27:59;100950;;;17.883;45
78843;BME280;70542;53.774;-0.352;2024-02-14T22:34:00;100950;;;17.533;45
78843;BME280;70542;53.774;-0.352;2024-02-14T22:40:10;100940;;;17.658;45
78843;BME280;70542;53.774;-0.352;2024-02-14T22:46:07;100940;;;16.987;46
78843;BME280;70542;53.774;-0.352;2024-02-14T22:52:16;100930;;;16.572;47
78843;BME280;70542;53.774;-0.352;2024-02-14T22:58:13;100950;;;16.908;47
78843;BME280;70542;53.774;-0.352;2024-02-14T23:04:10;100940;;;16.759;47
78843;BME280;70542;53.774;-0.352;2024-02-14T23:10:19;100950;;;17.11;47
78843;BME280;70542;53.774;-0.352;2024-02-14T23:16:16;100950;;;17.42;45
78843;BME280;70542;53.774;-0.352;2024-02-14T23:22:13;100950;;;16.552;47
78843;BME280;70542;53.774;-0.352;2024-02-14T23:28:27;100930;;;16.495;47
78843;BME280;70542;53.774;-0.352;2024-02-14T23:34:24;100940;;;16.629;47
78843;BME280;70542;53.774;-0.352;2024-02-14T23:40:33;100960;;;16.772;47
78843;BME280;70542;53.774;-0.352;2024-02-14T23:46:30;100940;;;17.007;46
78843;BME280;70542;53.774;-0.352;2024-02-14T23:52:28;100940;;;17.106;46
78843;BME280;70542;53.774;-0.352;2024-02-14T23:58:37;100940;;;17.308;46
